createdAt,value
2023-01-03T00:00:13.668Z,3.43
2023-01-03T00:05:20.121Z,4.20
2023-01-03T00:10:23.863Z,3.40
2023-01-03T00:15:31.025Z,3.77
2023-01-03T00:20:36.921Z,3.87
2023-01-03T00:25:43.450Z,3.63
2023-01-03T00:30:47.333Z,3.53
2023-01-03T00:35:52.186Z,3.90
2023-01-03T00:40:55.889Z,3.97
2023-01-03T00:46:01.047Z,3.87
2023-01-03T00:51:12.529Z,2.87
2023-01-03T00:56:19.066Z,3.67
2023-01-03T01:01:28.552Z,3.97
2023-01-03T01:06:39.631Z,3.63
2023-01-03T01:11:45.493Z,4.73
2023-01-03T01:17:02.246Z,3.47
2023-01-03T01:22:06.198Z,3.23
2023-01-03T01:27:11.220Z,4.10
2023-01-03T01:32:15.795Z,2.97
2023-01-03T01:37:22.133Z,3.63
2023-01-03T01:42:44.674Z,3.97
2023-01-03T01:48:00.000Z,3.47
2023-01-03T01:53:36.488Z,3.60
2023-01-03T01:58:44.747Z,2.97
2023-01-03T02:04:17.349Z,2.80
2023-01-03T02:09:23.321Z,3.60
2023-01-03T02:14:44.309Z,3.93
2023-01-03T02:20:08.868Z,3.47
2023-01-03T02:25:38.896Z,4.50
2023-01-03T02:30:45.995Z,3.43
2023-01-03T02:36:19.814Z,3.50
2023-01-03T02:41:32.645Z,2.93
2023-01-03T02:46:59.535Z,3.23
2023-01-03T02:52:14.211Z,3.27
2023-01-03T02:57:25.701Z,3.37
2023-01-03T03:02:37.082Z,3.83
2023-01-03T03:07:42.170Z,5.73
2023-01-03T03:13:08.807Z,4.97
2023-01-03T03:18:27.303Z,6.50
2023-01-03T03:23:56.265Z,4.73
2023-01-03T03:29:10.864Z,4.13
2023-01-03T03:34:28.339Z,3.30
2023-01-03T03:39:54.391Z,3.70
2023-01-03T03:45:04.251Z,4.75
2023-01-03T03:50:18.625Z,4.07
2023-01-03T03:55:35.346Z,5.10
2023-01-03T04:05:58.393Z,3.60
2023-01-03T04:11:08.475Z,4.00
2023-01-03T04:16:12.401Z,3.60
2023-01-03T04:21:20.691Z,3.50
2023-01-03T04:26:26.451Z,3.83
2023-01-03T04:31:31.128Z,4.13
2023-01-03T04:36:35.984Z,3.27
2023-01-03T04:41:39.883Z,4.17
2023-01-03T04:46:49.020Z,4.67
2023-01-03T04:51:59.514Z,5.40
2023-01-03T04:57:05.454Z,4.70
2023-01-03T05:02:13.463Z,5.27
2023-01-03T05:07:17.697Z,5.87
2023-01-03T05:12:25.939Z,6.23
2023-01-03T05:17:31.365Z,5.97
2023-01-03T05:22:56.204Z,5.93
2023-01-03T05:28:04.305Z,5.77
2023-01-03T05:33:09.326Z,6.30
2023-01-03T05:38:15.087Z,4.63
2023-01-03T05:43:19.013Z,6.40
2023-01-03T05:48:23.593Z,6.10
2023-01-03T05:53:29.133Z,5.40
2023-01-03T05:58:35.059Z,11.20
2023-01-03T06:03:44.668Z,9.88
2023-01-03T06:08:54.405Z,7.47
2023-01-03T06:14:02.306Z,6.57
2023-01-03T06:19:09.805Z,6.50
2023-01-03T06:24:21.675Z,6.93
2023-01-03T06:29:25.945Z,6.55
2023-01-03T06:34:31.082Z,5.38
2023-01-03T06:39:38.802Z,4.72
2023-01-03T06:44:43.277Z,5.67
2023-01-03T06:50:12.313Z,6.43
2023-01-03T06:55:21.402Z,6.47
2023-01-03T07:00:27.539Z,6.45
2023-01-03T07:05:34.200Z,5.93
2023-01-03T07:10:42.210Z,6.68
2023-01-03T07:15:46.616Z,7.37
2023-01-03T07:20:50.736Z,7.55
2023-01-03T07:25:58.129Z,7.57
2023-01-03T07:31:08.841Z,6.20
2023-01-03T07:41:46.073Z,7.07
2023-01-03T07:46:52.601Z,7.68
2023-01-03T07:52:01.349Z,8.07
2023-01-03T07:57:06.073Z,6.95
2023-01-03T08:02:11.077Z,9.00
2023-01-03T08:07:18.822Z,7.47
2023-01-03T08:12:45.121Z,7.15
2023-01-03T08:17:51.812Z,7.35
2023-01-03T08:22:57.539Z,7.88
2023-01-03T08:28:02.327Z,8.35
2023-01-03T08:33:08.964Z,6.93
2023-01-03T08:38:18.746Z,7.50
2023-01-03T08:43:23.054Z,7.15
2023-01-03T08:48:27.274Z,7.57
2023-01-03T08:53:32.255Z,7.70
2023-01-03T08:58:36.623Z,7.75
2023-01-03T09:03:44.595Z,7.68
2023-01-03T09:08:48.707Z,9.00
2023-01-03T09:13:55.951Z,8.85
2023-01-03T09:19:03.344Z,8.70
2023-01-03T09:24:07.465Z,9.30
2023-01-03T09:29:15.961Z,8.93
2023-01-03T09:34:24.911Z,9.25
2023-01-03T09:39:29.946Z,10.57
2023-01-03T09:44:35.191Z,12.90
2023-01-03T09:49:57.661Z,11.38
2023-01-03T09:55:53.316Z,10.18
2023-01-03T10:01:41.634Z,9.43
2023-01-03T10:06:53.886Z,9.13
2023-01-03T10:12:20.956Z,11.00
2023-01-03T10:18:13.968Z,11.27
2023-01-03T10:23:22.135Z,11.85
2023-01-03T10:28:39.231Z,11.23
2023-01-03T10:33:47.080Z,11.57
2023-01-03T10:39:09.242Z,14.57
2023-01-03T10:44:30.093Z,13.48
2023-01-03T10:49:37.144Z,11.40
2023-01-03T10:54:53.322Z,13.55
2023-01-03T11:00:23.333Z,12.90
2023-01-03T11:05:30.232Z,13.83
2023-01-03T11:10:57.412Z,14.25
2023-01-03T11:16:05.096Z,13.38
2023-01-03T11:21:31.972Z,17.42
2023-01-03T11:26:46.485Z,14.90
2023-01-03T11:32:22.365Z,16.25
2023-01-03T11:37:42.144Z,16.60
2023-01-03T11:43:14.779Z,14.38
2023-01-03T11:48:31.509Z,15.40
2023-01-03T11:54:18.739Z,14.15
2023-01-03T11:59:42.934Z,15.73
2023-01-03T12:05:07.288Z,14.02
2023-01-03T12:10:50.661Z,14.27
2023-01-03T12:16:03.274Z,15.82
2023-01-03T12:21:38.352Z,12.40
2023-01-03T12:26:50.197Z,13.95
2023-01-03T12:32:08.127Z,14.25
2023-01-03T12:37:20.030Z,12.15
2023-01-03T12:42:37.422Z,12.25
2023-01-03T12:48:15.357Z,11.23
2023-01-03T12:53:24.457Z,11.63
2023-01-03T12:58:45.303Z,10.63
2023-01-03T13:04:00.356Z,11.00
2023-01-03T13:09:18.375Z,11.45
2023-01-03T13:14:28.412Z,12.50
2023-01-03T13:19:39.611Z,11.82
2023-01-03T13:24:54.637Z,12.13
2023-01-03T13:30:00.727Z,10.50
2023-01-03T13:35:05.849Z,14.43
2023-01-03T13:40:59.624Z,13.23
2023-01-03T13:46:02.248Z,10.07
2023-01-03T13:51:15.321Z,11.43
2023-01-03T13:56:25.577Z,9.52
2023-01-03T14:01:45.584Z,8.45
2023-01-03T14:07:30.143Z,8.35
2023-01-03T14:12:55.146Z,8.85
2023-01-03T14:18:17.394Z,8.55
2023-01-03T14:28:54.428Z,8.45
2023-01-03T14:34:04.580Z,9.05
2023-01-03T14:44:36.604Z,9.50
2023-01-03T14:49:45.971Z,10.35
2023-01-03T14:54:58.525Z,8.95
2023-01-03T15:00:13.582Z,9.05
2023-01-03T15:05:35.018Z,9.15
2023-01-03T15:10:53.503Z,8.93
2023-01-03T15:16:02.739Z,8.73
2023-01-03T15:21:23.526Z,8.35
2023-01-03T15:26:38.368Z,8.55
2023-01-03T15:31:50.984Z,8.07
2023-01-03T15:37:12.792Z,7.93
2023-01-03T15:42:46.784Z,8.10
2023-01-03T15:48:00.757Z,7.78
2023-01-03T15:53:04.561Z,8.02
2023-01-03T15:58:12.374Z,9.55
2023-01-03T16:03:19.446Z,8.45
2023-01-03T16:08:36.685Z,7.65
2023-01-03T16:13:45.829Z,8.23
2023-01-03T16:18:53.276Z,8.02
2023-01-03T16:23:57.981Z,8.25
2023-01-03T16:29:04.599Z,10.25
2023-01-03T16:34:21.368Z,8.40
2023-01-03T16:39:29.177Z,8.30
2023-01-03T16:44:37.306Z,7.68
2023-01-03T16:49:46.065Z,7.35
2023-01-03T16:54:53.095Z,7.30
2023-01-03T17:00:00.089Z,8.30
2023-01-03T17:05:04.099Z,7.60
2023-01-03T17:10:29.887Z,8.27
2023-01-03T17:15:35.832Z,7.75
2023-01-03T17:20:40.613Z,7.53
2023-01-03T17:25:45.109Z,7.75
2023-01-03T17:30:51.838Z,8.73
2023-01-03T17:35:58.967Z,8.45
2023-01-03T17:41:04.271Z,7.60
2023-01-03T17:46:38.578Z,8.30
2023-01-03T17:51:42.524Z,7.70
2023-01-03T17:56:48.003Z,7.80
2023-01-03T18:01:58.218Z,6.85
2023-01-03T18:07:02.206Z,6.60
2023-01-03T18:12:06.154Z,6.97
2023-01-03T18:17:36.316Z,7.10
2023-01-03T18:22:41.384Z,7.10
2023-01-03T18:28:02.553Z,7.80
2023-01-03T18:33:06.391Z,7.93
2023-01-03T18:38:29.884Z,6.88
2023-01-03T18:43:35.068Z,6.28
2023-01-03T18:48:39.007Z,7.23
2023-01-03T18:53:49.233Z,6.27
2023-01-03T18:59:01.572Z,6.38
2023-01-03T19:04:07.404Z,5.83
2023-01-03T19:09:19.933Z,6.70
2023-01-03T19:14:23.725Z,6.27
2023-01-03T19:19:28.471Z,5.87
2023-01-03T19:24:39.703Z,5.33
2023-01-03T19:29:47.657Z,5.60
2023-01-03T19:34:51.797Z,5.50
2023-01-03T19:39:57.109Z,4.60
2023-01-03T19:45:18.625Z,5.97
2023-01-03T19:50:31.412Z,4.87
2023-01-03T19:55:40.670Z,4.67
2023-01-03T20:00:51.066Z,4.40
2023-01-03T20:05:55.704Z,4.25
2023-01-03T20:11:02.163Z,3.23
2023-01-03T20:16:08.081Z,3.55
2023-01-03T20:21:24.573Z,3.53
2023-01-03T20:26:34.282Z,3.40
2023-01-03T20:31:39.439Z,2.93
2023-01-03T20:36:52.130Z,2.87
2023-01-03T20:42:01.510Z,2.70
2023-01-03T20:47:11.384Z,2.90
2023-01-03T20:52:17.724Z,2.60
2023-01-03T20:57:26.910Z,3.10
2023-01-03T21:02:33.405Z,3.07
2023-01-03T21:07:56.040Z,2.87
2023-01-03T21:13:05.664Z,3.00
2023-01-03T21:18:12.077Z,2.63
2023-01-03T21:23:23.227Z,2.23
2023-01-03T21:29:09.503Z,2.80
2023-01-03T21:34:18.871Z,2.53
2023-01-03T21:39:25.228Z,2.17
2023-01-03T21:44:29.073Z,3.40
2023-01-03T21:49:35.007Z,2.80
2023-01-03T21:54:38.952Z,2.63
2023-01-03T21:59:44.339Z,2.50
2023-01-03T22:04:49.211Z,2.23
2023-01-03T22:10:13.248Z,2.10
2023-01-03T22:15:23.475Z,2.97
2023-01-03T22:20:33.543Z,2.13
2023-01-03T22:25:42.314Z,2.40
2023-01-03T22:30:46.033Z,2.50
2023-01-03T22:35:50.654Z,2.47
2023-01-03T22:40:54.341Z,2.30
2023-01-03T22:45:59.547Z,2.30
2023-01-03T22:51:06.768Z,2.53
2023-01-03T22:56:17.478Z,2.43
2023-01-03T23:01:29.763Z,1.67
2023-01-03T23:06:37.232Z,1.83
2023-01-03T23:12:00.629Z,2.47
2023-01-03T23:17:23.719Z,2.50
2023-01-03T23:22:28.687Z,2.57
2023-01-03T23:27:35.726Z,1.90
2023-01-03T23:32:39.398Z,2.60
2023-01-03T23:37:44.487Z,2.60
2023-01-03T23:42:49.504Z,2.10
2023-01-03T23:47:54.188Z,2.40
2023-01-03T23:53:00.114Z,2.43
2023-01-03T23:58:03.781Z,1.97
